Terminal Aerodrome Forecast
Issued by NWS

Home | Current Version | Previous Version | Text Only | Print | Product List | Glossary On
Versions: 1 2 3 4 5 6 7 8 9 10 11 12 13 14 15 16 17 18 19 20 21 22 23 24 25 26 27 28
907
FTUS43 KSGF 241910 AAA
TAFJLN
TAF AMD
KJLN 241910Z 2419/2518 17018G22KT P6SM FEW250
     FM250000 19013G20KT P6SM FEW250 WS020/20045KT
     FM250500 23012KT P6SM FEW250
     FM251500 28012G20KT P6SM SCT070=

USA.gov is the U.S. government's official web portal to all federal, state and local government web resources and services.